sensor_id;sensor_type;location;lat;lon;timestamp;P1;durP1;ratioP1;P2;durP2;ratioP2
76867;SDS011;66168;45.478;11.060;2023-05-07T00:01:48;13.80;;;11.50;;
76867;SDS011;66168;45.478;11.060;2023-05-07T00:04:15;13.20;;;11.10;;
76867;SDS011;66168;45.478;11.060;2023-05-07T00:06:42;14.20;;;12.70;;
76867;SDS011;66168;45.478;11.060;2023-05-07T00:09:08;12.50;;;10.90;;
76867;SDS011;66168;45.478;11.060;2023-05-07T00:11:35;14.90;;;11.30;;
76867;SDS011;66168;45.478;11.060;2023-05-07T00:14:02;12.50;;;10.80;;
76867;SDS011;66168;45.478;11.060;2023-05-07T00:16:29;13.60;;;10.70;;
76867;SDS011;66168;45.478;11.060;2023-05-07T00:18:56;13.50;;;11.30;;
76867;SDS011;66168;45.478;11.060;2023-05-07T00:21:22;14.60;;;10.90;;
76867;SDS011;66168;45.478;11.060;2023-05-07T00:23:53;13.00;;;11.10;;
76867;SDS011;66168;45.478;11.060;2023-05-07T00:26:20;12.90;;;11.40;;
76867;SDS011;66168;45.478;11.060;2023-05-07T00:28:48;13.50;;;11.60;;
76867;SDS011;66168;45.478;11.060;2023-05-07T00:31:15;15.30;;;11.90;;
76867;SDS011;66168;45.478;11.060;2023-05-07T00:33:42;12.80;;;11.50;;
76867;SDS011;66168;45.478;11.060;2023-05-07T00:36:08;12.20;;;10.90;;
76867;SDS011;66168;45.478;11.060;2023-05-07T00:38:36;14.40;;;12.20;;
76867;SDS011;66168;45.478;11.060;2023-05-07T00:41:02;13.30;;;11.70;;
76867;SDS011;66168;45.478;11.060;2023-05-07T00:43:29;13.90;;;11.90;;
76867;SDS011;66168;45.478;11.060;2023-05-07T00:45:56;14.20;;;11.40;;
76867;SDS011;66168;45.478;11.060;2023-05-07T00:48:22;12.50;;;10.80;;
76867;SDS011;66168;45.478;11.060;2023-05-07T00:50:50;12.40;;;10.80;;
76867;SDS011;66168;45.478;11.060;2023-05-07T00:53:17;12.80;;;10.80;;
76867;SDS011;66168;45.478;11.060;2023-05-07T00:55:44;13.90;;;12.00;;
76867;SDS011;66168;45.478;11.060;2023-05-07T00:58:11;13.00;;;10.60;;
76867;SDS011;66168;45.478;11.060;2023-05-07T01:00:38;11.70;;;10.50;;
76867;SDS011;66168;45.478;11.060;2023-05-07T01:03:04;13.60;;;11.80;;
76867;SDS011;66168;45.478;11.060;2023-05-07T01:05:32;14.20;;;11.10;;
76867;SDS011;66168;45.478;11.060;2023-05-07T01:08:00;13.00;;;10.70;;
76867;SDS011;66168;45.478;11.060;2023-05-07T01:10:29;11.50;;;10.30;;
76867;SDS011;66168;45.478;11.060;2023-05-07T01:12:57;12.30;;;11.00;;
76867;SDS011;66168;45.478;11.060;2023-05-07T01:15:26;12.60;;;10.40;;
76867;SDS011;66168;45.478;11.060;2023-05-07T01:17:53;13.90;;;10.30;;
76867;SDS011;66168;45.478;11.060;2023-05-07T01:20:24;11.30;;;10.00;;
76867;SDS011;66168;45.478;11.060;2023-05-07T01:22:53;12.70;;;11.10;;
76867;SDS011;66168;45.478;11.060;2023-05-07T01:25:21;11.90;;;10.20;;
76867;SDS011;66168;45.478;11.060;2023-05-07T01:27:49;11.70;;;9.50;;
76867;SDS011;66168;45.478;11.060;2023-05-07T01:30:16;11.50;;;10.10;;
76867;SDS011;66168;45.478;11.060;2023-05-07T01:32:55;14.00;;;11.40;;
76867;SDS011;66168;45.478;11.060;2023-05-07T01:35:28;12.40;;;10.80;;
76867;SDS011;66168;45.478;11.060;2023-05-07T01:37:58;11.40;;;9.50;;
76867;SDS011;66168;45.478;11.060;2023-05-07T01:40:27;12.20;;;10.40;;
76867;SDS011;66168;45.478;11.060;2023-05-07T01:42:54;12.40;;;10.20;;
76867;SDS011;66168;45.478;11.060;2023-05-07T01:45:21;12.80;;;10.30;;
76867;SDS011;66168;45.478;11.060;2023-05-07T01:47:49;12.20;;;10.10;;
76867;SDS011;66168;45.478;11.060;2023-05-07T01:50:16;13.10;;;11.40;;
76867;SDS011;66168;45.478;11.060;2023-05-07T01:52:45;12.20;;;10.90;;
76867;SDS011;66168;45.478;11.060;2023-05-07T01:55:13;12.60;;;9.70;;
76867;SDS011;66168;45.478;11.060;2023-05-07T01:57:40;13.30;;;10.60;;
76867;SDS011;66168;45.478;11.060;2023-05-07T02:00:07;13.90;;;11.60;;
76867;SDS011;66168;45.478;11.060;2023-05-07T02:02:42;11.20;;;9.90;;
76867;SDS011;66168;45.478;11.060;2023-05-07T02:05:15;12.00;;;10.00;;
76867;SDS011;66168;45.478;11.060;2023-05-07T02:07:42;14.10;;;11.00;;
76867;SDS011;66168;45.478;11.060;2023-05-07T02:10:09;11.90;;;9.70;;
76867;SDS011;66168;45.478;11.060;2023-05-07T02:12:36;12.40;;;11.00;;
76867;SDS011;66168;45.478;11.060;2023-05-07T02:15:03;10.40;;;9.30;;
76867;SDS011;66168;45.478;11.060;2023-05-07T02:17:30;11.80;;;9.90;;
76867;SDS011;66168;45.478;11.060;2023-05-07T02:19:59;14.30;;;11.80;;
76867;SDS011;66168;45.478;11.060;2023-05-07T02:22:26;13.10;;;11.10;;
76867;SDS011;66168;45.478;11.060;2023-05-07T02:24:53;14.80;;;11.30;;
76867;SDS011;66168;45.478;11.060;2023-05-07T02:27:19;13.10;;;10.80;;
76867;SDS011;66168;45.478;11.060;2023-05-07T02:29:46;13.00;;;11.20;;
76867;SDS011;66168;45.478;11.060;2023-05-07T02:32:13;13.00;;;11.30;;
76867;SDS011;66168;45.478;11.060;2023-05-07T02:34:39;13.40;;;11.60;;
76867;SDS011;66168;45.478;11.060;2023-05-07T02:37:06;14.50;;;11.90;;
76867;SDS011;66168;45.478;11.060;2023-05-07T02:39:33;14.10;;;11.80;;
76867;SDS011;66168;45.478;11.060;2023-05-07T02:42:00;16.80;;;11.80;;
76867;SDS011;66168;45.478;11.060;2023-05-07T02:44:28;13.50;;;11.60;;
76867;SDS011;66168;45.478;11.060;2023-05-07T02:46:58;14.70;;;12.50;;
76867;SDS011;66168;45.478;11.060;2023-05-07T02:49:25;13.10;;;10.70;;
76867;SDS011;66168;45.478;11.060;2023-05-07T02:51:51;13.70;;;10.90;;
76867;SDS011;66168;45.478;11.060;2023-05-07T02:54:20;13.10;;;11.40;;
76867;SDS011;66168;45.478;11.060;2023-05-07T02:56:47;14.90;;;11.40;;
76867;SDS011;66168;45.478;11.060;2023-05-07T02:59:14;16.00;;;12.40;;
76867;SDS011;66168;45.478;11.060;2023-05-07T03:01:41;13.10;;;11.00;;
76867;SDS011;66168;45.478;11.060;2023-05-07T03:04:11;13.60;;;10.30;;
76867;SDS011;66168;45.478;11.060;2023-05-07T03:06:38;11.70;;;10.20;;
76867;SDS011;66168;45.478;11.060;2023-05-07T03:09:05;12.70;;;9.60;;
76867;SDS011;66168;45.478;11.060;2023-05-07T03:11:32;12.30;;;10.30;;
76867;SDS011;66168;45.478;11.060;2023-05-07T03:13:58;11.70;;;10.10;;
76867;SDS011;66168;45.478;11.060;2023-05-07T03:16:25;10.00;;;9.00;;
76867;SDS011;66168;45.478;11.060;2023-05-07T03:18:52;11.00;;;9.90;;
76867;SDS011;66168;45.478;11.060;2023-05-07T03:21:19;13.70;;;11.10;;
76867;SDS011;66168;45.478;11.060;2023-05-07T03:23:46;11.40;;;10.20;;
76867;SDS011;66168;45.478;11.060;2023-05-07T03:26:13;12.90;;;10.60;;
76867;SDS011;66168;45.478;11.060;2023-05-07T03:28:40;12.10;;;10.50;;
76867;SDS011;66168;45.478;11.060;2023-05-07T03:31:10;13.80;;;11.40;;
76867;SDS011;66168;45.478;11.060;2023-05-07T03:33:39;11.60;;;10.30;;
76867;SDS011;66168;45.478;11.060;2023-05-07T03:36:24;10.80;;;9.30;;
76867;SDS011;66168;45.478;11.060;2023-05-07T03:38:54;11.90;;;9.40;;
76867;SDS011;66168;45.478;11.060;2023-05-07T03:41:23;12.70;;;9.90;;
76867;SDS011;66168;45.478;11.060;2023-05-07T03:43:50;12.10;;;10.60;;
76867;SDS011;66168;45.478;11.060;2023-05-07T03:46:17;13.60;;;10.80;;
76867;SDS011;66168;45.478;11.060;2023-05-07T03:48:43;12.00;;;10.40;;
76867;SDS011;66168;45.478;11.060;2023-05-07T03:51:11;12.70;;;10.60;;
76867;SDS011;66168;45.478;11.060;2023-05-07T03:53:38;13.90;;;11.30;;
76867;SDS011;66168;45.478;11.060;2023-05-07T03:56:04;14.90;;;10.40;;
76867;SDS011;66168;45.478;11.060;2023-05-07T03:58:34;11.70;;;10.00;;
76867;SDS011;66168;45.478;11.060;2023-05-07T04:01:04;11.30;;;10.00;;
76867;SDS011;66168;45.478;11.060;2023-05-07T04:03:31;11.70;;;8.80;;
76867;SDS011;66168;45.478;11.060;2023-05-07T04:05:58;11.40;;;9.40;;
76867;SDS011;66168;45.478;11.060;2023-05-07T04:08:25;12.00;;;9.60;;
76867;SDS011;66168;45.478;11.060;2023-05-07T04:10:56;12.30;;;10.70;;
76867;SDS011;66168;45.478;11.060;2023-05-07T04:13:26;13.80;;;10.60;;
76867;SDS011;66168;45.478;11.060;2023-05-07T04:15:54;11.40;;;10.00;;
76867;SDS011;66168;45.478;11.060;2023-05-07T04:18:22;14.20;;;11.00;;
76867;SDS011;66168;45.478;11.060;2023-05-07T04:20:49;13.60;;;10.50;;
76867;SDS011;66168;45.478;11.060;2023-05-07T04:23:16;12.90;;;11.00;;
76867;SDS011;66168;45.478;11.060;2023-05-07T04:25:43;13.20;;;11.20;;
76867;SDS011;66168;45.478;11.060;2023-05-07T04:28:17;15.60;;;12.00;;
76867;SDS011;66168;45.478;11.060;2023-05-07T04:30:44;13.70;;;10.70;;
76867;SDS011;66168;45.478;11.060;2023-05-07T04:33:13;12.90;;;11.00;;
76867;SDS011;66168;45.478;11.060;2023-05-07T04:35:41;14.40;;;11.40;;
76867;SDS011;66168;45.478;11.060;2023-05-07T04:38:08;14.40;;;11.60;;
76867;SDS011;66168;45.478;11.060;2023-05-07T04:40:35;14.30;;;11.90;;
76867;SDS011;66168;45.478;11.060;2023-05-07T04:43:03;12.60;;;11.10;;
76867;SDS011;66168;45.478;11.060;2023-05-07T04:45:33;11.90;;;10.50;;
76867;SDS011;66168;45.478;11.060;2023-05-07T04:47:59;11.40;;;10.30;;
76867;SDS011;66168;45.478;11.060;2023-05-07T04:50:27;11.70;;;10.50;;
76867;SDS011;66168;45.478;11.060;2023-05-07T04:52:56;14.70;;;10.60;;
76867;SDS011;66168;45.478;11.060;2023-05-07T04:55:23;13.20;;;10.80;;
76867;SDS011;66168;45.478;11.060;2023-05-07T04:57:50;15.00;;;12.10;;
76867;SDS011;66168;45.478;11.060;2023-05-07T05:00:16;12.80;;;10.80;;
76867;SDS011;66168;45.478;11.060;2023-05-07T05:02:46;14.30;;;11.90;;
76867;SDS011;66168;45.478;11.060;2023-05-07T05:05:15;15.60;;;12.00;;
76867;SDS011;66168;45.478;11.060;2023-05-07T05:07:43;16.60;;;12.70;;
76867;SDS011;66168;45.478;11.060;2023-05-07T05:10:10;17.50;;;13.50;;
76867;SDS011;66168;45.478;11.060;2023-05-07T05:12:38;15.00;;;12.40;;
76867;SDS011;66168;45.478;11.060;2023-05-07T05:15:06;18.40;;;12.50;;
76867;SDS011;66168;45.478;11.060;2023-05-07T05:17:33;29.50;;;13.10;;
76867;SDS011;66168;45.478;11.060;2023-05-07T05:20:02;15.80;;;12.00;;
76867;SDS011;66168;45.478;11.060;2023-05-07T05:22:29;16.30;;;12.00;;
76867;SDS011;66168;45.478;11.060;2023-05-07T05:24:58;12.00;;;10.30;;
76867;SDS011;66168;45.478;11.060;2023-05-07T05:27:24;15.90;;;11.80;;
76867;SDS011;66168;45.478;11.060;2023-05-07T05:29:51;13.30;;;11.90;;
76867;SDS011;66168;45.478;11.060;2023-05-07T05:32:18;12.90;;;11.50;;
76867;SDS011;66168;45.478;11.060;2023-05-07T05:34:45;13.50;;;11.40;;
76867;SDS011;66168;45.478;11.060;2023-05-07T05:37:12;15.90;;;12.50;;
76867;SDS011;66168;45.478;11.060;2023-05-07T05:39:39;15.20;;;11.40;;
76867;SDS011;66168;45.478;11.060;2023-05-07T05:42:06;14.60;;;11.90;;
76867;SDS011;66168;45.478;11.060;2023-05-07T05:44:34;12.50;;;11.30;;
76867;SDS011;66168;45.478;11.060;2023-05-07T05:47:00;11.80;;;10.30;;
76867;SDS011;66168;45.478;11.060;2023-05-07T05:49:28;15.00;;;11.90;;
76867;SDS011;66168;45.478;11.060;2023-05-07T05:51:55;14.30;;;12.80;;
76867;SDS011;66168;45.478;11.060;2023-05-07T05:54:23;12.60;;;11.10;;
76867;SDS011;66168;45.478;11.060;2023-05-07T05:56:49;11.60;;;10.10;;
76867;SDS011;66168;45.478;11.060;2023-05-07T05:59:17;13.10;;;10.90;;
76867;SDS011;66168;45.478;11.060;2023-05-07T06:01:44;15.00;;;10.90;;
76867;SDS011;66168;45.478;11.060;2023-05-07T06:04:12;11.50;;;9.90;;
76867;SDS011;66168;45.478;11.060;2023-05-07T06:06:38;12.70;;;10.20;;
76867;SDS011;66168;45.478;11.060;2023-05-07T06:09:05;11.60;;;10.20;;
76867;SDS011;66168;45.478;11.060;2023-05-07T06:11:39;13.00;;;11.60;;
76867;SDS011;66168;45.478;11.060;2023-05-07T06:14:08;13.30;;;11.90;;
76867;SDS011;66168;45.478;11.060;2023-05-07T06:16:35;13.90;;;11.60;;
76867;SDS011;66168;45.478;11.060;2023-05-07T06:19:05;11.80;;;10.40;;
76867;SDS011;66168;45.478;11.060;2023-05-07T06:21:31;14.80;;;10.80;;
76867;SDS011;66168;45.478;11.060;2023-05-07T06:23:59;13.90;;;11.90;;
76867;SDS011;66168;45.478;11.060;2023-05-07T06:26:25;12.50;;;11.30;;
76867;SDS011;66168;45.478;11.060;2023-05-07T06:28:52;14.30;;;11.60;;
76867;SDS011;66168;45.478;11.060;2023-05-07T06:31:19;12.20;;;10.80;;
76867;SDS011;66168;45.478;11.060;2023-05-07T06:33:53;13.90;;;11.20;;
76867;SDS011;66168;45.478;11.060;2023-05-07T06:36:23;13.90;;;12.10;;
76867;SDS011;66168;45.478;11.060;2023-05-07T06:38:52;14.10;;;10.50;;
76867;SDS011;66168;45.478;11.060;2023-05-07T06:41:19;15.60;;;12.30;;
76867;SDS011;66168;45.478;11.060;2023-05-07T06:43:47;13.30;;;11.30;;
76867;SDS011;66168;45.478;11.060;2023-05-07T06:46:28;15.00;;;13.20;;
76867;SDS011;66168;45.478;11.060;2023-05-07T06:48:55;14.90;;;13.00;;
76867;SDS011;66168;45.478;11.060;2023-05-07T06:51:24;15.50;;;11.80;;
76867;SDS011;66168;45.478;11.060;2023-05-07T06:53:51;13.80;;;11.30;;
76867;SDS011;66168;45.478;11.060;2023-05-07T06:56:18;12.80;;;10.70;;
76867;SDS011;66168;45.478;11.060;2023-05-07T06:58:46;11.40;;;10.20;;
76867;SDS011;66168;45.478;11.060;2023-05-07T07:01:13;13.40;;;11.30;;
76867;SDS011;66168;45.478;11.060;2023-05-07T07:03:39;11.80;;;10.50;;
76867;SDS011;66168;45.478;11.060;2023-05-07T07:06:06;12.60;;;9.90;;
76867;SDS011;66168;45.478;11.060;2023-05-07T07:08:33;12.50;;;10.40;;
76867;SDS011;66168;45.478;11.060;2023-05-07T07:11:01;11.30;;;9.80;;
76867;SDS011;66168;45.478;11.060;2023-05-07T07:13:28;11.10;;;9.90;;
76867;SDS011;66168;45.478;11.060;2023-05-07T07:15:55;13.70;;;11.60;;
76867;SDS011;66168;45.478;11.060;2023-05-07T07:18:22;12.90;;;10.60;;
76867;SDS011;66168;45.478;11.060;2023-05-07T07:20:49;12.80;;;10.50;;
76867;SDS011;66168;45.478;11.060;2023-05-07T07:23:16;11.60;;;9.60;;
76867;SDS011;66168;45.478;11.060;2023-05-07T07:25:43;13.10;;;11.00;;
76867;SDS011;66168;45.478;11.060;2023-05-07T07:28:10;12.40;;;10.30;;
76867;SDS011;66168;45.478;11.060;2023-05-07T07:30:39;11.80;;;10.30;;
76867;SDS011;66168;45.478;11.060;2023-05-07T07:33:06;12.90;;;11.20;;
76867;SDS011;66168;45.478;11.060;2023-05-07T07:35:34;14.20;;;10.80;;
76867;SDS011;66168;45.478;11.060;2023-05-07T07:38:03;13.30;;;11.00;;
76867;SDS011;66168;45.478;11.060;2023-05-07T07:40:30;13.70;;;11.10;;
76867;SDS011;66168;45.478;11.060;2023-05-07T07:42:57;15.40;;;12.30;;
76867;SDS011;66168;45.478;11.060;2023-05-07T07:45:24;12.40;;;11.10;;
76867;SDS011;66168;45.478;11.060;2023-05-07T07:47:51;16.20;;;11.70;;
76867;SDS011;66168;45.478;11.060;2023-05-07T07:50:17;17.60;;;15.80;;
76867;SDS011;66168;45.478;11.060;2023-05-07T07:53:05;11.60;;;10.30;;
76867;SDS011;66168;45.478;11.060;2023-05-07T07:55:32;12.60;;;10.60;;
76867;SDS011;66168;45.478;11.060;2023-05-07T07:57:59;13.20;;;11.10;;
76867;SDS011;66168;45.478;11.060;2023-05-07T08:00:26;14.80;;;12.10;;
76867;SDS011;66168;45.478;11.060;2023-05-07T08:02:53;13.20;;;11.80;;
76867;SDS011;66168;45.478;11.060;2023-05-07T08:05:24;15.50;;;12.30;;
76867;SDS011;66168;45.478;11.060;2023-05-07T08:07:52;14.70;;;11.40;;
76867;SDS011;66168;45.478;11.060;2023-05-07T08:10:23;15.60;;;12.90;;
76867;SDS011;66168;45.478;11.060;2023-05-07T08:15:22;13.90;;;12.40;;
76867;SDS011;66168;45.478;11.060;2023-05-07T08:17:50;12.30;;;10.40;;
76867;SDS011;66168;45.478;11.060;2023-05-07T08:20:17;11.50;;;9.80;;
76867;SDS011;66168;45.478;11.060;2023-05-07T08:22:44;11.90;;;10.00;;
76867;SDS011;66168;45.478;11.060;2023-05-07T08:25:11;13.70;;;11.10;;
76867;SDS011;66168;45.478;11.060;2023-05-07T08:27:38;13.40;;;12.00;;
76867;SDS011;66168;45.478;11.060;2023-05-07T08:30:05;15.50;;;13.00;;
76867;SDS011;66168;45.478;11.060;2023-05-07T08:32:33;12.60;;;11.10;;
76867;SDS011;66168;45.478;11.060;2023-05-07T08:35:03;12.70;;;11.10;;
76867;SDS011;66168;45.478;11.060;2023-05-07T08:37:30;11.80;;;10.10;;
76867;SDS011;66168;45.478;11.060;2023-05-07T08:39:57;13.20;;;11.80;;
76867;SDS011;66168;45.478;11.060;2023-05-07T08:42:27;12.80;;;11.00;;
76867;SDS011;66168;45.478;11.060;2023-05-07T08:44:57;12.40;;;10.40;;
76867;SDS011;66168;45.478;11.060;2023-05-07T08:47:27;11.00;;;9.80;;
76867;SDS011;66168;45.478;11.060;2023-05-07T08:50:01;14.10;;;11.70;;
76867;SDS011;66168;45.478;11.060;2023-05-07T08:52:28;13.80;;;10.40;;
76867;SDS011;66168;45.478;11.060;2023-05-07T08:54:56;13.80;;;12.20;;
76867;SDS011;66168;45.478;11.060;2023-05-07T08:57:24;12.80;;;10.80;;
76867;SDS011;66168;45.478;11.060;2023-05-07T08:59:51;11.40;;;10.00;;
76867;SDS011;66168;45.478;11.060;2023-05-07T09:02:18;12.00;;;10.50;;
76867;SDS011;66168;45.478;11.060;2023-05-07T09:04:46;12.50;;;10.70;;
76867;SDS011;66168;45.478;11.060;2023-05-07T09:07:12;11.70;;;10.30;;
76867;SDS011;66168;45.478;11.060;2023-05-07T09:09:40;10.80;;;9.80;;
76867;SDS011;66168;45.478;11.060;2023-05-07T09:12:07;13.10;;;11.80;;
76867;SDS011;66168;45.478;11.060;2023-05-07T09:14:35;14.90;;;12.20;;
76867;SDS011;66168;45.478;11.060;2023-05-07T09:17:02;11.40;;;10.30;;
76867;SDS011;66168;45.478;11.060;2023-05-07T09:19:29;13.80;;;12.30;;
76867;SDS011;66168;45.478;11.060;2023-05-07T09:21:59;14.00;;;12.00;;
76867;SDS011;66168;45.478;11.060;2023-05-07T09:24:29;12.50;;;11.20;;
76867;SDS011;66168;45.478;11.060;2023-05-07T09:27:01;12.60;;;10.00;;
76867;SDS011;66168;45.478;11.060;2023-05-07T09:29:29;11.50;;;10.30;;
76867;SDS011;66168;45.478;11.060;2023-05-07T09:32:03;11.70;;;10.20;;
76867;SDS011;66168;45.478;11.060;2023-05-07T09:34:34;11.30;;;10.20;;
76867;SDS011;66168;45.478;11.060;2023-05-07T09:37:02;11.00;;;9.80;;
76867;SDS011;66168;45.478;11.060;2023-05-07T09:39:40;11.00;;;9.80;;
76867;SDS011;66168;45.478;11.060;2023-05-07T09:42:08;10.20;;;9.10;;
76867;SDS011;66168;45.478;11.060;2023-05-07T09:44:35;11.10;;;8.70;;
76867;SDS011;66168;45.478;11.060;2023-05-07T09:47:07;9.40;;;8.40;;
76867;SDS011;66168;45.478;11.060;2023-05-07T09:49:39;9.40;;;8.40;;
76867;SDS011;66168;45.478;11.060;2023-05-07T09:52:10;8.30;;;7.40;;
76867;SDS011;66168;45.478;11.060;2023-05-07T09:54:41;8.30;;;7.00;;
76867;SDS011;66168;45.478;11.060;2023-05-07T09:57:11;8.90;;;7.00;;
76867;SDS011;66168;45.478;11.060;2023-05-07T09:59:42;8.20;;;6.70;;
76867;SDS011;66168;45.478;11.060;2023-05-07T10:02:12;6.90;;;6.30;;
76867;SDS011;66168;45.478;11.060;2023-05-07T10:04:46;7.60;;;6.80;;
76867;SDS011;66168;45.478;11.060;2023-05-07T10:07:13;7.80;;;7.00;;
76867;SDS011;66168;45.478;11.060;2023-05-07T10:09:41;10.10;;;9.00;;
76867;SDS011;66168;45.478;11.060;2023-05-07T10:12:19;9.30;;;8.40;;
76867;SDS011;66168;45.478;11.060;2023-05-07T10:14:47;10.50;;;9.50;;
76867;SDS011;66168;45.478;11.060;2023-05-07T10:17:16;11.80;;;10.00;;
76867;SDS011;66168;45.478;11.060;2023-05-07T10:19:46;11.20;;;9.10;;
76867;SDS011;66168;45.478;11.060;2023-05-07T10:22:14;11.20;;;9.80;;
76867;SDS011;66168;45.478;11.060;2023-05-07T10:24:43;12.50;;;11.20;;
76867;SDS011;66168;45.478;11.060;2023-05-07T10:27:15;12.50;;;10.80;;
76867;SDS011;66168;45.478;11.060;2023-05-07T10:30:00;12.30;;;10.70;;
76867;SDS011;66168;45.478;11.060;2023-05-07T10:33:01;9.60;;;8.60;;
76867;SDS011;66168;45.478;11.060;2023-05-07T10:35:36;11.60;;;10.10;;
76867;SDS011;66168;45.478;11.060;2023-05-07T10:38:08;10.70;;;9.30;;
76867;SDS011;66168;45.478;11.060;2023-05-07T10:40:37;13.50;;;11.70;;
76867;SDS011;66168;45.478;11.060;2023-05-07T10:43:05;10.90;;;9.80;;
76867;SDS011;66168;45.478;11.060;2023-05-07T10:45:40;11.00;;;9.80;;
76867;SDS011;66168;45.478;11.060;2023-05-07T10:50:50;10.80;;;9.70;;
76867;SDS011;66168;45.478;11.060;2023-05-07T10:56:38;13.80;;;11.30;;
76867;SDS011;66168;45.478;11.060;2023-05-07T11:02:02;13.10;;;11.40;;
76867;SDS011;66168;45.478;11.060;2023-05-07T11:08:07;10.50;;;9.40;;
76867;SDS011;66168;45.478;11.060;2023-05-07T11:10:53;13.20;;;11.80;;
76867;SDS011;66168;45.478;11.060;2023-05-07T11:13:48;10.30;;;9.20;;
76867;SDS011;66168;45.478;11.060;2023-05-07T11:16:30;11.20;;;9.20;;
76867;SDS011;66168;45.478;11.060;2023-05-07T11:19:47;13.40;;;12.00;;
76867;SDS011;66168;45.478;11.060;2023-05-07T11:25:07;11.50;;;9.70;;
76867;SDS011;66168;45.478;11.060;2023-05-07T11:27:34;10.80;;;9.50;;
76867;SDS011;66168;45.478;11.060;2023-05-07T11:30:01;11.50;;;10.50;;
76867;SDS011;66168;45.478;11.060;2023-05-07T11:32:29;13.00;;;10.80;;
76867;SDS011;66168;45.478;11.060;2023-05-07T11:34:59;10.60;;;9.40;;
76867;SDS011;66168;45.478;11.060;2023-05-07T11:37:27;10.40;;;9.30;;
76867;SDS011;66168;45.478;11.060;2023-05-07T11:40:05;9.80;;;8.70;;
76867;SDS011;66168;45.478;11.060;2023-05-07T11:42:38;9.90;;;8.80;;
76867;SDS011;66168;45.478;11.060;2023-05-07T11:45:06;9.60;;;8.60;;
76867;SDS011;66168;45.478;11.060;2023-05-07T11:47:34;10.40;;;9.30;;
76867;SDS011;66168;45.478;11.060;2023-05-07T11:50:04;9.80;;;8.80;;
76867;SDS011;66168;45.478;11.060;2023-05-07T11:52:34;10.60;;;9.60;;
76867;SDS011;66168;45.478;11.060;2023-05-07T11:55:01;13.10;;;9.90;;
76867;SDS011;66168;45.478;11.060;2023-05-07T11:57:32;9.60;;;8.70;;
76867;SDS011;66168;45.478;11.060;2023-05-07T12:00:00;9.90;;;9.00;;
76867;SDS011;66168;45.478;11.060;2023-05-07T12:02:41;8.90;;;7.60;;
76867;SDS011;66168;45.478;11.060;2023-05-07T12:05:08;10.30;;;8.50;;
76867;SDS011;66168;45.478;11.060;2023-05-07T12:07:36;8.60;;;7.80;;
76867;SDS011;66168;45.478;11.060;2023-05-07T12:10:06;10.10;;;7.80;;
76867;SDS011;66168;45.478;11.060;2023-05-07T12:12:40;8.90;;;8.10;;
76867;SDS011;66168;45.478;11.060;2023-05-07T12:15:08;8.70;;;7.90;;
76867;SDS011;66168;45.478;11.060;2023-05-07T12:17:36;9.70;;;8.30;;
76867;SDS011;66168;45.478;11.060;2023-05-07T12:20:03;10.10;;;9.20;;
76867;SDS011;66168;45.478;11.060;2023-05-07T12:22:31;9.00;;;8.10;;
76867;SDS011;66168;45.478;11.060;2023-05-07T12:24:58;7.40;;;6.70;;
76867;SDS011;66168;45.478;11.060;2023-05-07T12:27:26;7.40;;;6.70;;
76867;SDS011;66168;45.478;11.060;2023-05-07T12:29:53;8.90;;;7.00;;
76867;SDS011;66168;45.478;11.060;2023-05-07T12:32:20;9.10;;;8.30;;
76867;SDS011;66168;45.478;11.060;2023-05-07T12:34:51;8.50;;;7.00;;
76867;SDS011;66168;45.478;11.060;2023-05-07T12:37:22;8.90;;;8.00;;
76867;SDS011;66168;45.478;11.060;2023-05-07T12:40:07;9.10;;;7.80;;
76867;SDS011;66168;45.478;11.060;2023-05-07T12:42:35;6.90;;;6.20;;
76867;SDS011;66168;45.478;11.060;2023-05-07T12:45:12;8.80;;;7.70;;
76867;SDS011;66168;45.478;11.060;2023-05-07T12:47:43;8.50;;;7.60;;
76867;SDS011;66168;45.478;11.060;2023-05-07T12:50:12;8.00;;;7.00;;
76867;SDS011;66168;45.478;11.060;2023-05-07T12:52:40;10.00;;;9.00;;
76867;SDS011;66168;45.478;11.060;2023-05-07T12:55:07;8.80;;;6.90;;
76867;SDS011;66168;45.478;11.060;2023-05-07T12:57:39;8.00;;;6.70;;
76867;SDS011;66168;45.478;11.060;2023-05-07T13:00:10;6.70;;;5.80;;
76867;SDS011;66168;45.478;11.060;2023-05-07T13:02:37;5.50;;;5.00;;
76867;SDS011;66168;45.478;11.060;2023-05-07T13:05:06;5.80;;;5.30;;
76867;SDS011;66168;45.478;11.060;2023-05-07T13:07:34;5.20;;;4.80;;
76867;SDS011;66168;45.478;11.060;2023-05-07T13:10:00;6.10;;;5.30;;
76867;SDS011;66168;45.478;11.060;2023-05-07T13:12:27;6.40;;;5.10;;
76867;SDS011;66168;45.478;11.060;2023-05-07T13:14:54;9.10;;;7.90;;
76867;SDS011;66168;45.478;11.060;2023-05-07T13:17:20;7.00;;;5.90;;
76867;SDS011;66168;45.478;11.060;2023-05-07T13:19:47;7.40;;;6.70;;
76867;SDS011;66168;45.478;11.060;2023-05-07T13:22:14;5.80;;;5.30;;
76867;SDS011;66168;45.478;11.060;2023-05-07T13:24:41;6.20;;;5.60;;
76867;SDS011;66168;45.478;11.060;2023-05-07T13:27:10;6.40;;;5.90;;
76867;SDS011;66168;45.478;11.060;2023-05-07T13:29:36;5.80;;;5.30;;
76867;SDS011;66168;45.478;11.060;2023-05-07T13:32:03;6.20;;;5.40;;
76867;SDS011;66168;45.478;11.060;2023-05-07T13:34:30;9.00;;;7.60;;
76867;SDS011;66168;45.478;11.060;2023-05-07T13:36:57;7.70;;;7.00;;
76867;SDS011;66168;45.478;11.060;2023-05-07T13:39:24;6.00;;;5.50;;
76867;SDS011;66168;45.478;11.060;2023-05-07T13:41:50;5.80;;;5.30;;
76867;SDS011;66168;45.478;11.060;2023-05-07T13:44:17;4.90;;;4.40;;
76867;SDS011;66168;45.478;11.060;2023-05-07T13:46:44;6.60;;;6.00;;
76867;SDS011;66168;45.478;11.060;2023-05-07T13:49:10;7.90;;;6.70;;
76867;SDS011;66168;45.478;11.060;2023-05-07T13:51:38;9.10;;;8.30;;
76867;SDS011;66168;45.478;11.060;2023-05-07T13:54:05;5.80;;;5.20;;
76867;SDS011;66168;45.478;11.060;2023-05-07T13:56:32;5.40;;;4.90;;
76867;SDS011;66168;45.478;11.060;2023-05-07T13:58:58;5.10;;;4.70;;
76867;SDS011;66168;45.478;11.060;2023-05-07T14:01:26;6.00;;;5.00;;
76867;SDS011;66168;45.478;11.060;2023-05-07T14:03:53;6.00;;;5.40;;
76867;SDS011;66168;45.478;11.060;2023-05-07T14:06:21;6.70;;;5.50;;
76867;SDS011;66168;45.478;11.060;2023-05-07T14:08:48;6.30;;;5.80;;
76867;SDS011;66168;45.478;11.060;2023-05-07T14:11:15;9.00;;;8.10;;
76867;SDS011;66168;45.478;11.060;2023-05-07T14:13:41;7.10;;;6.50;;
76867;SDS011;66168;45.478;11.060;2023-05-07T14:16:08;6.10;;;5.30;;
76867;SDS011;66168;45.478;11.060;2023-05-07T14:18:35;6.10;;;5.50;;
76867;SDS011;66168;45.478;11.060;2023-05-07T14:21:04;5.90;;;5.40;;
76867;SDS011;66168;45.478;11.060;2023-05-07T14:23:32;7.20;;;6.50;;
76867;SDS011;66168;45.478;11.060;2023-05-07T14:25:59;6.10;;;4.90;;
76867;SDS011;66168;45.478;11.060;2023-05-07T14:28:26;6.90;;;5.90;;
76867;SDS011;66168;45.478;11.060;2023-05-07T14:30:52;9.10;;;7.30;;
76867;SDS011;66168;45.478;11.060;2023-05-07T14:33:19;7.20;;;6.50;;
76867;SDS011;66168;45.478;11.060;2023-05-07T14:35:46;8.00;;;7.20;;
76867;SDS011;66168;45.478;11.060;2023-05-07T14:38:15;7.40;;;6.70;;
76867;SDS011;66168;45.478;11.060;2023-05-07T14:40:42;7.30;;;6.70;;
76867;SDS011;66168;45.478;11.060;2023-05-07T14:43:08;7.70;;;6.90;;